sensor_id;sensor_type;location;lat;lon;timestamp;P1;durP1;ratioP1;P2;durP2;ratioP2
46282;SDS011;32017;43.700;11.820;2023-05-07T00:01:51;1.42;;;1.42;;
46282;SDS011;32017;43.700;11.820;2023-05-07T00:04:12;1.70;;;1.60;;
46282;SDS011;32017;43.700;11.820;2023-05-07T00:06:32;1.50;;;1.50;;
46282;SDS011;32017;43.700;11.820;2023-05-07T00:08:52;1.63;;;1.52;;
46282;SDS011;32017;43.700;11.820;2023-05-07T00:11:12;1.70;;;1.70;;
46282;SDS011;32017;43.700;11.820;2023-05-07T00:13:33;2.20;;;2.10;;
46282;SDS011;32017;43.700;11.820;2023-05-07T00:15:54;3.88;;;1.73;;
46282;SDS011;32017;43.700;11.820;2023-05-07T00:18:14;1.60;;;1.60;;
46282;SDS011;32017;43.700;11.820;2023-05-07T00:20:35;1.40;;;1.40;;
46282;SDS011;32017;43.700;11.820;2023-05-07T00:22:55;1.70;;;1.70;;
46282;SDS011;32017;43.700;11.820;2023-05-07T00:25:15;2.42;;;2.42;;
46282;SDS011;32017;43.700;11.820;2023-05-07T00:27:35;1.75;;;1.75;;
46282;SDS011;32017;43.700;11.820;2023-05-07T00:29:55;1.90;;;1.90;;
46282;SDS011;32017;43.700;11.820;2023-05-07T00:32:15;2.17;;;1.92;;
46282;SDS011;32017;43.700;11.820;2023-05-07T00:34:35;1.98;;;1.88;;
46282;SDS011;32017;43.700;11.820;2023-05-07T00:36:56;1.77;;;1.77;;
46282;SDS011;32017;43.700;11.820;2023-05-07T00:39:16;1.50;;;1.50;;
46282;SDS011;32017;43.700;11.820;2023-05-07T00:41:36;1.88;;;1.77;;
46282;SDS011;32017;43.700;11.820;2023-05-07T00:43:56;2.35;;;2.10;;
46282;SDS011;32017;43.700;11.820;2023-05-07T00:46:17;1.83;;;1.83;;
46282;SDS011;32017;43.700;11.820;2023-05-07T00:48:37;1.55;;;1.55;;
46282;SDS011;32017;43.700;11.820;2023-05-07T00:50:57;2.15;;;2.05;;
46282;SDS011;32017;43.700;11.820;2023-05-07T00:53:18;2.45;;;2.35;;
46282;SDS011;32017;43.700;11.820;2023-05-07T00:55:38;2.10;;;2.10;;
46282;SDS011;32017;43.700;11.820;2023-05-07T00:57:59;1.88;;;1.88;;
46282;SDS011;32017;43.700;11.820;2023-05-07T01:00:19;1.63;;;1.63;;
46282;SDS011;32017;43.700;11.820;2023-05-07T01:02:40;2.58;;;2.40;;
46282;SDS011;32017;43.700;11.820;2023-05-07T01:05:01;2.13;;;2.13;;
46282;SDS011;32017;43.700;11.820;2023-05-07T01:07:23;2.13;;;2.08;;
46282;SDS011;32017;43.700;11.820;2023-05-07T01:09:43;2.10;;;2.10;;
46282;SDS011;32017;43.700;11.820;2023-05-07T01:12:04;2.20;;;2.20;;
46282;SDS011;32017;43.700;11.820;2023-05-07T01:14:24;2.50;;;2.47;;
46282;SDS011;32017;43.700;11.820;2023-05-07T01:16:45;3.08;;;2.88;;
46282;SDS011;32017;43.700;11.820;2023-05-07T01:19:05;2.58;;;2.38;;
46282;SDS011;32017;43.700;11.820;2023-05-07T01:21:26;1.67;;;1.67;;
46282;SDS011;32017;43.700;11.820;2023-05-07T01:23:46;2.30;;;2.20;;
46282;SDS011;32017;43.700;11.820;2023-05-07T01:26:07;2.40;;;2.15;;
46282;SDS011;32017;43.700;11.820;2023-05-07T01:28:27;1.70;;;1.70;;
46282;SDS011;32017;43.700;11.820;2023-05-07T01:30:48;1.70;;;1.70;;
46282;SDS011;32017;43.700;11.820;2023-05-07T01:33:11;3.08;;;2.33;;
46282;SDS011;32017;43.700;11.820;2023-05-07T01:35:37;2.70;;;2.60;;
46282;SDS011;32017;43.700;11.820;2023-05-07T01:37:59;2.17;;;2.17;;
46282;SDS011;32017;43.700;11.820;2023-05-07T01:40:20;2.63;;;2.45;;
46282;SDS011;32017;43.700;11.820;2023-05-07T01:42:41;6.53;;;2.20;;
46282;SDS011;32017;43.700;11.820;2023-05-07T01:45:01;2.10;;;2.10;;
46282;SDS011;32017;43.700;11.820;2023-05-07T01:47:22;2.90;;;2.08;;
46282;SDS011;32017;43.700;11.820;2023-05-07T01:49:42;2.92;;;2.30;;
46282;SDS011;32017;43.700;11.820;2023-05-07T01:52:03;1.58;;;1.50;;
46282;SDS011;32017;43.700;11.820;2023-05-07T01:54:27;2.20;;;2.20;;
46282;SDS011;32017;43.700;11.820;2023-05-07T01:56:47;2.10;;;2.00;;
46282;SDS011;32017;43.700;11.820;2023-05-07T01:59:08;2.13;;;2.10;;
46282;SDS011;32017;43.700;11.820;2023-05-07T02:01:28;2.10;;;2.10;;
46282;SDS011;32017;43.700;11.820;2023-05-07T02:03:49;3.78;;;2.28;;
46282;SDS011;32017;43.700;11.820;2023-05-07T02:06:09;2.85;;;2.75;;
46282;SDS011;32017;43.700;11.820;2023-05-07T02:08:29;2.42;;;2.20;;
46282;SDS011;32017;43.700;11.820;2023-05-07T02:10:50;2.65;;;2.55;;
46282;SDS011;32017;43.700;11.820;2023-05-07T02:13:10;2.35;;;2.35;;
46282;SDS011;32017;43.700;11.820;2023-05-07T02:15:31;2.58;;;2.58;;
46282;SDS011;32017;43.700;11.820;2023-05-07T02:18:04;2.72;;;2.63;;
46282;SDS011;32017;43.700;11.820;2023-05-07T02:20:25;2.85;;;2.75;;
46282;SDS011;32017;43.700;11.820;2023-05-07T02:22:45;2.22;;;2.22;;
46282;SDS011;32017;43.700;11.820;2023-05-07T02:25:05;2.38;;;2.28;;
46282;SDS011;32017;43.700;11.820;2023-05-07T02:27:26;2.10;;;2.05;;
46282;SDS011;32017;43.700;11.820;2023-05-07T02:29:46;1.92;;;1.80;;
46282;SDS011;32017;43.700;11.820;2023-05-07T02:32:06;2.08;;;2.08;;
46282;SDS011;32017;43.700;11.820;2023-05-07T02:34:26;2.20;;;2.20;;
46282;SDS011;32017;43.700;11.820;2023-05-07T02:36:46;1.77;;;1.77;;
46282;SDS011;32017;43.700;11.820;2023-05-07T02:39:06;2.53;;;2.53;;
46282;SDS011;32017;43.700;11.820;2023-05-07T02:41:26;2.83;;;2.63;;
46282;SDS011;32017;43.700;11.820;2023-05-07T02:43:47;2.35;;;2.35;;
46282;SDS011;32017;43.700;11.820;2023-05-07T02:46:07;2.17;;;1.98;;
46282;SDS011;32017;43.700;11.820;2023-05-07T02:48:28;2.22;;;2.13;;
46282;SDS011;32017;43.700;11.820;2023-05-07T02:50:48;2.88;;;2.88;;
46282;SDS011;32017;43.700;11.820;2023-05-07T02:53:08;2.38;;;2.38;;
46282;SDS011;32017;43.700;11.820;2023-05-07T02:55:28;2.90;;;2.85;;
46282;SDS011;32017;43.700;11.820;2023-05-07T02:57:49;2.40;;;2.40;;
46282;SDS011;32017;43.700;11.820;2023-05-07T03:02:32;1.73;;;1.73;;
46282;SDS011;32017;43.700;11.820;2023-05-07T03:04:52;2.55;;;2.55;;
46282;SDS011;32017;43.700;11.820;2023-05-07T03:07:12;2.83;;;2.83;;
46282;SDS011;32017;43.700;11.820;2023-05-07T03:09:33;2.70;;;2.53;;
46282;SDS011;32017;43.700;11.820;2023-05-07T03:11:53;2.42;;;2.42;;
46282;SDS011;32017;43.700;11.820;2023-05-07T03:14:14;2.45;;;2.40;;
46282;SDS011;32017;43.700;11.820;2023-05-07T03:16:34;2.90;;;2.80;;
46282;SDS011;32017;43.700;11.820;2023-05-07T03:18:54;2.30;;;2.30;;
46282;SDS011;32017;43.700;11.820;2023-05-07T03:21:14;2.53;;;2.53;;
46282;SDS011;32017;43.700;11.820;2023-05-07T03:23:34;2.30;;;2.30;;
46282;SDS011;32017;43.700;11.820;2023-05-07T03:25:54;2.00;;;2.00;;
46282;SDS011;32017;43.700;11.820;2023-05-07T03:28:14;2.55;;;2.45;;
46282;SDS011;32017;43.700;11.820;2023-05-07T03:30:35;2.00;;;2.00;;
46282;SDS011;32017;43.700;11.820;2023-05-07T03:32:55;2.10;;;2.10;;
46282;SDS011;32017;43.700;11.820;2023-05-07T03:35:15;2.75;;;2.72;;
46282;SDS011;32017;43.700;11.820;2023-05-07T03:37:36;2.38;;;2.38;;
46282;SDS011;32017;43.700;11.820;2023-05-07T03:39:56;3.30;;;3.30;;
46282;SDS011;32017;43.700;11.820;2023-05-07T03:42:16;2.58;;;2.50;;
46282;SDS011;32017;43.700;11.820;2023-05-07T03:44:36;2.42;;;2.42;;
46282;SDS011;32017;43.700;11.820;2023-05-07T03:46:57;2.53;;;2.53;;
46282;SDS011;32017;43.700;11.820;2023-05-07T03:49:17;1.98;;;1.98;;
46282;SDS011;32017;43.700;11.820;2023-05-07T03:51:37;2.60;;;2.60;;
46282;SDS011;32017;43.700;11.820;2023-05-07T03:53:57;2.78;;;2.78;;
46282;SDS011;32017;43.700;11.820;2023-05-07T03:56:17;2.47;;;2.47;;
46282;SDS011;32017;43.700;11.820;2023-05-07T03:58:38;2.92;;;2.78;;
46282;SDS011;32017;43.700;11.820;2023-05-07T04:00:58;3.17;;;3.08;;
46282;SDS011;32017;43.700;11.820;2023-05-07T04:03:18;2.25;;;2.25;;
46282;SDS011;32017;43.700;11.820;2023-05-07T04:05:39;2.78;;;2.78;;
46282;SDS011;32017;43.700;11.820;2023-05-07T04:07:59;3.63;;;2.97;;
46282;SDS011;32017;43.700;11.820;2023-05-07T04:10:20;3.58;;;3.38;;
46282;SDS011;32017;43.700;11.820;2023-05-07T04:12:40;2.88;;;2.67;;
46282;SDS011;32017;43.700;11.820;2023-05-07T04:15:00;3.40;;;3.30;;
46282;SDS011;32017;43.700;11.820;2023-05-07T04:17:21;2.45;;;2.45;;
46282;SDS011;32017;43.700;11.820;2023-05-07T04:19:41;3.90;;;3.80;;
46282;SDS011;32017;43.700;11.820;2023-05-07T04:22:04;3.05;;;2.95;;
46282;SDS011;32017;43.700;11.820;2023-05-07T04:24:24;2.92;;;2.83;;
46282;SDS011;32017;43.700;11.820;2023-05-07T04:26:44;2.90;;;2.88;;
46282;SDS011;32017;43.700;11.820;2023-05-07T04:29:04;2.45;;;2.45;;
46282;SDS011;32017;43.700;11.820;2023-05-07T04:31:24;2.78;;;2.78;;
46282;SDS011;32017;43.700;11.820;2023-05-07T04:33:45;3.15;;;3.05;;
46282;SDS011;32017;43.700;11.820;2023-05-07T04:36:05;2.95;;;2.78;;
46282;SDS011;32017;43.700;11.820;2023-05-07T04:38:25;2.55;;;2.55;;
46282;SDS011;32017;43.700;11.820;2023-05-07T04:40:45;3.85;;;2.60;;
46282;SDS011;32017;43.700;11.820;2023-05-07T04:43:05;2.75;;;2.65;;
46282;SDS011;32017;43.700;11.820;2023-05-07T04:45:28;3.60;;;3.50;;
46282;SDS011;32017;43.700;11.820;2023-05-07T04:47:49;2.92;;;2.83;;
46282;SDS011;32017;43.700;11.820;2023-05-07T04:50:09;3.15;;;3.15;;
46282;SDS011;32017;43.700;11.820;2023-05-07T04:52:30;2.47;;;2.38;;
46282;SDS011;32017;43.700;11.820;2023-05-07T04:54:50;2.63;;;2.63;;
46282;SDS011;32017;43.700;11.820;2023-05-07T04:57:11;3.53;;;3.35;;
46282;SDS011;32017;43.700;11.820;2023-05-07T04:59:31;3.05;;;2.97;;
46282;SDS011;32017;43.700;11.820;2023-05-07T05:01:52;3.78;;;3.60;;
46282;SDS011;32017;43.700;11.820;2023-05-07T05:04:12;3.45;;;3.45;;
46282;SDS011;32017;43.700;11.820;2023-05-07T05:06:32;3.35;;;3.25;;
46282;SDS011;32017;43.700;11.820;2023-05-07T05:08:53;3.10;;;3.10;;
46282;SDS011;32017;43.700;11.820;2023-05-07T05:11:14;4.32;;;3.70;;
46282;SDS011;32017;43.700;11.820;2023-05-07T05:13:34;4.75;;;3.75;;
46282;SDS011;32017;43.700;11.820;2023-05-07T05:15:54;2.65;;;2.60;;
46282;SDS011;32017;43.700;11.820;2023-05-07T05:18:15;3.03;;;2.92;;
46282;SDS011;32017;43.700;11.820;2023-05-07T05:20:35;2.78;;;2.67;;
46282;SDS011;32017;43.700;11.820;2023-05-07T05:22:55;2.50;;;2.50;;
46282;SDS011;32017;43.700;11.820;2023-05-07T05:25:15;2.15;;;2.15;;
46282;SDS011;32017;43.700;11.820;2023-05-07T05:27:35;2.45;;;2.45;;
46282;SDS011;32017;43.700;11.820;2023-05-07T05:29:55;2.67;;;2.58;;
46282;SDS011;32017;43.700;11.820;2023-05-07T05:32:16;2.53;;;2.33;;
46282;SDS011;32017;43.700;11.820;2023-05-07T05:34:36;2.03;;;2.03;;
46282;SDS011;32017;43.700;11.820;2023-05-07T05:36:56;3.72;;;2.90;;
46282;SDS011;32017;43.700;11.820;2023-05-07T05:39:16;2.55;;;2.45;;
46282;SDS011;32017;43.700;11.820;2023-05-07T05:41:37;6.07;;;2.78;;
46282;SDS011;32017;43.700;11.820;2023-05-07T05:43:57;3.25;;;3.05;;
46282;SDS011;32017;43.700;11.820;2023-05-07T05:46:17;2.78;;;2.53;;
46282;SDS011;32017;43.700;11.820;2023-05-07T05:48:37;2.30;;;2.20;;
46282;SDS011;32017;43.700;11.820;2023-05-07T05:50:57;2.72;;;2.58;;
46282;SDS011;32017;43.700;11.820;2023-05-07T05:53:17;3.42;;;3.30;;
46282;SDS011;32017;43.700;11.820;2023-05-07T05:55:37;3.30;;;3.13;;
46282;SDS011;32017;43.700;11.820;2023-05-07T05:57:58;2.83;;;2.83;;
46282;SDS011;32017;43.700;11.820;2023-05-07T06:00:19;3.03;;;2.92;;
46282;SDS011;32017;43.700;11.820;2023-05-07T06:02:41;3.00;;;2.90;;
46282;SDS011;32017;43.700;11.820;2023-05-07T06:05:01;2.60;;;2.53;;
46282;SDS011;32017;43.700;11.820;2023-05-07T06:07:22;2.05;;;2.05;;
46282;SDS011;32017;43.700;11.820;2023-05-07T06:09:42;2.08;;;2.08;;
46282;SDS011;32017;43.700;11.820;2023-05-07T06:12:02;1.77;;;1.67;;
46282;SDS011;32017;43.700;11.820;2023-05-07T06:14:22;1.42;;;1.38;;
46282;SDS011;32017;43.700;11.820;2023-05-07T06:16:43;1.75;;;1.65;;
46282;SDS011;32017;43.700;11.820;2023-05-07T06:19:03;1.80;;;1.70;;
46282;SDS011;32017;43.700;11.820;2023-05-07T06:21:24;2.10;;;2.00;;
46282;SDS011;32017;43.700;11.820;2023-05-07T06:23:44;1.70;;;1.70;;
46282;SDS011;32017;43.700;11.820;2023-05-07T06:26:04;4.75;;;1.73;;
46282;SDS011;32017;43.700;11.820;2023-05-07T06:28:24;1.60;;;1.60;;
46282;SDS011;32017;43.700;11.820;2023-05-07T06:30:44;1.45;;;1.20;;
46282;SDS011;32017;43.700;11.820;2023-05-07T06:33:04;1.70;;;1.60;;
46282;SDS011;32017;43.700;11.820;2023-05-07T06:35:25;1.75;;;1.30;;
46282;SDS011;32017;43.700;11.820;2023-05-07T06:37:45;1.58;;;1.58;;
46282;SDS011;32017;43.700;11.820;2023-05-07T06:40:06;7.00;;;1.90;;
46282;SDS011;32017;43.700;11.820;2023-05-07T06:42:26;1.63;;;1.55;;
46282;SDS011;32017;43.700;11.820;2023-05-07T06:44:47;1.55;;;1.55;;
46282;SDS011;32017;43.700;11.820;2023-05-07T06:47:07;1.58;;;1.48;;
46282;SDS011;32017;43.700;11.820;2023-05-07T06:49:27;2.25;;;1.67;;
46282;SDS011;32017;43.700;11.820;2023-05-07T06:51:48;1.60;;;1.48;;
46282;SDS011;32017;43.700;11.820;2023-05-07T06:54:08;1.20;;;1.20;;
46282;SDS011;32017;43.700;11.820;2023-05-07T06:56:31;1.20;;;1.20;;
46282;SDS011;32017;43.700;11.820;2023-05-07T06:58:51;1.10;;;1.10;;
46282;SDS011;32017;43.700;11.820;2023-05-07T07:01:11;1.25;;;1.25;;
46282;SDS011;32017;43.700;11.820;2023-05-07T07:03:32;2.35;;;1.35;;
46282;SDS011;32017;43.700;11.820;2023-05-07T07:05:52;0.93;;;0.93;;
46282;SDS011;32017;43.700;11.820;2023-05-07T07:08:13;1.20;;;1.10;;
46282;SDS011;32017;43.700;11.820;2023-05-07T07:10:34;1.20;;;1.20;;
46282;SDS011;32017;43.700;11.820;2023-05-07T07:12:54;1.02;;;0.98;;
46282;SDS011;32017;43.700;11.820;2023-05-07T07:15:14;1.05;;;1.05;;
46282;SDS011;32017;43.700;11.820;2023-05-07T07:17:34;1.10;;;1.10;;
46282;SDS011;32017;43.700;11.820;2023-05-07T07:19:55;1.00;;;1.00;;
46282;SDS011;32017;43.700;11.820;2023-05-07T07:22:16;1.65;;;1.10;;
46282;SDS011;32017;43.700;11.820;2023-05-07T07:24:36;1.10;;;1.10;;
46282;SDS011;32017;43.700;11.820;2023-05-07T07:26:57;1.67;;;1.00;;
46282;SDS011;32017;43.700;11.820;2023-05-07T07:29:17;41.70;;;8.23;;
46282;SDS011;32017;43.700;11.820;2023-05-07T07:31:38;1.00;;;1.00;;
46282;SDS011;32017;43.700;11.820;2023-05-07T07:33:58;0.90;;;0.90;;
46282;SDS011;32017;43.700;11.820;2023-05-07T07:36:19;1.00;;;1.00;;
46282;SDS011;32017;43.700;11.820;2023-05-07T07:38:42;1.20;;;1.20;;
46282;SDS011;32017;43.700;11.820;2023-05-07T07:41:02;221.45;;;48.15;;
46282;SDS011;32017;43.700;11.820;2023-05-07T07:43:22;329.27;;;82.20;;
46282;SDS011;32017;43.700;11.820;2023-05-07T07:45:43;298.92;;;60.00;;
46282;SDS011;32017;43.700;11.820;2023-05-07T07:48:03;9.55;;;3.15;;
46282;SDS011;32017;43.700;11.820;2023-05-07T07:50:24;1.58;;;1.23;;
46282;SDS011;32017;43.700;11.820;2023-05-07T07:52:50;1.88;;;1.00;;
46282;SDS011;32017;43.700;11.820;2023-05-07T07:55:10;63.15;;;5.70;;
46282;SDS011;32017;43.700;11.820;2023-05-07T07:57:31;0.93;;;0.90;;
46282;SDS011;32017;43.700;11.820;2023-05-07T07:59:51;0.90;;;0.90;;
46282;SDS011;32017;43.700;11.820;2023-05-07T08:02:11;0.82;;;0.82;;
46282;SDS011;32017;43.700;11.820;2023-05-07T08:04:31;1.17;;;0.90;;
46282;SDS011;32017;43.700;11.820;2023-05-07T08:06:52;0.88;;;0.88;;
46282;SDS011;32017;43.700;11.820;2023-05-07T08:09:13;0.93;;;0.93;;
46282;SDS011;32017;43.700;11.820;2023-05-07T08:11:33;0.90;;;0.90;;
46282;SDS011;32017;43.700;11.820;2023-05-07T08:13:54;5.18;;;0.90;;
46282;SDS011;32017;43.700;11.820;2023-05-07T08:16:14;1.23;;;0.90;;
46282;SDS011;32017;43.700;11.820;2023-05-07T08:18:34;4.53;;;1.60;;
46282;SDS011;32017;43.700;11.820;2023-05-07T08:20:54;2.33;;;0.95;;
46282;SDS011;32017;43.700;11.820;2023-05-07T08:23:15;1.65;;;0.82;;
46282;SDS011;32017;43.700;11.820;2023-05-07T08:25:35;1.77;;;1.63;;
46282;SDS011;32017;43.700;11.820;2023-05-07T08:27:56;6.95;;;2.13;;
46282;SDS011;32017;43.700;11.820;2023-05-07T08:30:16;0.80;;;0.80;;
46282;SDS011;32017;43.700;11.820;2023-05-07T08:32:36;2.10;;;0.90;;
46282;SDS011;32017;43.700;11.820;2023-05-07T08:34:57;1.88;;;1.10;;
46282;SDS011;32017;43.700;11.820;2023-05-07T08:37:17;0.80;;;0.80;;
46282;SDS011;32017;43.700;11.820;2023-05-07T08:39:37;2.05;;;0.80;;
46282;SDS011;32017;43.700;11.820;2023-05-07T08:41:57;1.63;;;0.80;;
46282;SDS011;32017;43.700;11.820;2023-05-07T08:44:21;0.90;;;0.90;;
46282;SDS011;32017;43.700;11.820;2023-05-07T08:46:42;1.95;;;0.80;;
46282;SDS011;32017;43.700;11.820;2023-05-07T08:49:07;0.80;;;0.80;;
46282;SDS011;32017;43.700;11.820;2023-05-07T08:51:27;1.88;;;0.70;;
46282;SDS011;32017;43.700;11.820;2023-05-07T08:53:48;0.70;;;0.70;;
46282;SDS011;32017;43.700;11.820;2023-05-07T08:56:08;0.95;;;0.95;;
46282;SDS011;32017;43.700;11.820;2023-05-07T08:58:29;1.95;;;0.80;;
46282;SDS011;32017;43.700;11.820;2023-05-07T09:00:49;0.80;;;0.80;;
46282;SDS011;32017;43.700;11.820;2023-05-07T09:03:10;0.77;;;0.77;;
46282;SDS011;32017;43.700;11.820;2023-05-07T09:05:31;0.80;;;0.80;;
46282;SDS011;32017;43.700;11.820;2023-05-07T09:07:52;0.80;;;0.80;;
46282;SDS011;32017;43.700;11.820;2023-05-07T09:10:13;1.30;;;0.80;;
46282;SDS011;32017;43.700;11.820;2023-05-07T09:12:33;0.95;;;0.82;;
46282;SDS011;32017;43.700;11.820;2023-05-07T09:14:57;0.80;;;0.80;;
46282;SDS011;32017;43.700;11.820;2023-05-07T09:17:19;1.30;;;0.70;;
46282;SDS011;32017;43.700;11.820;2023-05-07T09:19:39;1.73;;;0.80;;
46282;SDS011;32017;43.700;11.820;2023-05-07T09:21:59;0.70;;;0.70;;
46282;SDS011;32017;43.700;11.820;2023-05-07T09:24:20;0.77;;;0.77;;
46282;SDS011;32017;43.700;11.820;2023-05-07T09:26:41;1.73;;;0.70;;
46282;SDS011;32017;43.700;11.820;2023-05-07T09:29:01;1.52;;;0.70;;
46282;SDS011;32017;43.700;11.820;2023-05-07T09:31:21;0.70;;;0.70;;
46282;SDS011;32017;43.700;11.820;2023-05-07T09:33:42;0.77;;;0.77;;
46282;SDS011;32017;43.700;11.820;2023-05-07T09:36:03;1.00;;;0.80;;
46282;SDS011;32017;43.700;11.820;2023-05-07T09:38:24;1.35;;;0.80;;
46282;SDS011;32017;43.700;11.820;2023-05-07T09:40:47;1.27;;;1.00;;
46282;SDS011;32017;43.700;11.820;2023-05-07T09:45:40;0.73;;;0.73;;
46282;SDS011;32017;43.700;11.820;2023-05-07T09:48:01;0.80;;;0.80;;
46282;SDS011;32017;43.700;11.820;2023-05-07T09:50:29;0.80;;;0.80;;
46282;SDS011;32017;43.700;11.820;2023-05-07T09:52:51;0.77;;;0.77;;
46282;SDS011;32017;43.700;11.820;2023-05-07T09:55:12;0.70;;;0.70;;
46282;SDS011;32017;43.700;11.820;2023-05-07T09:57:33;0.60;;;0.60;;
46282;SDS011;32017;43.700;11.820;2023-05-07T09:59:54;0.70;;;0.70;;
46282;SDS011;32017;43.700;11.820;2023-05-07T10:02:16;0.70;;;0.70;;
46282;SDS011;32017;43.700;11.820;2023-05-07T10:04:37;0.60;;;0.60;;
46282;SDS011;32017;43.700;11.820;2023-05-07T10:06:58;0.70;;;0.70;;
46282;SDS011;32017;43.700;11.820;2023-05-07T10:09:19;0.98;;;0.70;;
46282;SDS011;32017;43.700;11.820;2023-05-07T10:11:39;0.70;;;0.70;;
46282;SDS011;32017;43.700;11.820;2023-05-07T10:13:59;0.63;;;0.63;;
46282;SDS011;32017;43.700;11.820;2023-05-07T10:16:24;0.73;;;0.73;;
46282;SDS011;32017;43.700;11.820;2023-05-07T10:18:46;0.70;;;0.70;;
46282;SDS011;32017;43.700;11.820;2023-05-07T10:21:08;0.68;;;0.68;;
46282;SDS011;32017;43.700;11.820;2023-05-07T10:23:28;0.60;;;0.60;;
46282;SDS011;32017;43.700;11.820;2023-05-07T10:25:49;0.70;;;0.70;;
46282;SDS011;32017;43.700;11.820;2023-05-07T10:28:12;0.70;;;0.70;;
46282;SDS011;32017;43.700;11.820;2023-05-07T10:33:01;1.25;;;0.70;;
46282;SDS011;32017;43.700;11.820;2023-05-07T10:35:26;0.60;;;0.60;;
46282;SDS011;32017;43.700;11.820;2023-05-07T10:37:49;0.88;;;0.70;;
46282;SDS011;32017;43.700;11.820;2023-05-07T10:40:10;0.65;;;0.65;;
46282;SDS011;32017;43.700;11.820;2023-05-07T10:42:31;0.70;;;0.70;;
46282;SDS011;32017;43.700;11.820;2023-05-07T10:44:51;0.70;;;0.70;;
46282;SDS011;32017;43.700;11.820;2023-05-07T10:47:12;0.70;;;0.70;;
46282;SDS011;32017;43.700;11.820;2023-05-07T10:49:32;0.70;;;0.70;;
46282;SDS011;32017;43.700;11.820;2023-05-07T10:54:35;0.70;;;0.70;;
46282;SDS011;32017;43.700;11.820;2023-05-07T10:56:56;0.70;;;0.70;;
46282;SDS011;32017;43.700;11.820;2023-05-07T11:06:33;1.00;;;1.00;;
46282;SDS011;32017;43.700;11.820;2023-05-07T11:08:56;0.70;;;0.70;;
46282;SDS011;32017;43.700;11.820;2023-05-07T11:11:17;0.65;;;0.65;;
46282;SDS011;32017;43.700;11.820;2023-05-07T11:16:05;0.60;;;0.60;;
46282;SDS011;32017;43.700;11.820;2023-05-07T11:18:46;1.60;;;0.70;;
46282;SDS011;32017;43.700;11.820;2023-05-07T11:21:07;0.60;;;0.60;;
46282;SDS011;32017;43.700;11.820;2023-05-07T11:25:58;0.77;;;0.70;;
46282;SDS011;32017;43.700;11.820;2023-05-07T11:28:18;0.90;;;0.63;;
46282;SDS011;32017;43.700;11.820;2023-05-07T11:30:41;0.63;;;0.63;;
46282;SDS011;32017;43.700;11.820;2023-05-07T11:33:02;0.65;;;0.65;;
46282;SDS011;32017;43.700;11.820;2023-05-07T11:35:22;0.85;;;0.60;;
46282;SDS011;32017;43.700;11.820;2023-05-07T11:37:44;1.73;;;0.60;;
46282;SDS011;32017;43.700;11.820;2023-05-07T11:40:05;0.50;;;0.50;;
46282;SDS011;32017;43.700;11.820;2023-05-07T11:44:46;0.85;;;0.80;;
46282;SDS011;32017;43.700;11.820;2023-05-07T11:47:07;0.70;;;0.70;;
46282;SDS011;32017;43.700;11.820;2023-05-07T11:49:27;0.60;;;0.60;;
46282;SDS011;32017;43.700;11.820;2023-05-07T11:51:48;0.60;;;0.60;;
46282;SDS011;32017;43.700;11.820;2023-05-07T11:54:09;0.68;;;0.60;;
46282;SDS011;32017;43.700;11.820;2023-05-07T11:56:31;0.60;;;0.60;;
46282;SDS011;32017;43.700;11.820;2023-05-07T11:58:53;0.70;;;0.70;;
46282;SDS011;32017;43.700;11.820;2023-05-07T12:01:14;1.48;;;0.60;;
46282;SDS011;32017;43.700;11.820;2023-05-07T12:03:35;4.07;;;1.48;;
46282;SDS011;32017;43.700;11.820;2023-05-07T12:06:00;0.50;;;0.50;;
46282;SDS011;32017;43.700;11.820;2023-05-07T12:08:21;0.60;;;0.60;;
46282;SDS011;32017;43.700;11.820;2023-05-07T12:10:42;0.63;;;0.63;;
46282;SDS011;32017;43.700;11.820;2023-05-07T12:13:02;0.88;;;0.57;;
46282;SDS011;32017;43.700;11.820;2023-05-07T12:15:22;0.57;;;0.57;;
46282;SDS011;32017;43.700;11.820;2023-05-07T12:17:43;0.50;;;0.50;;
46282;SDS011;32017;43.700;11.820;2023-05-07T12:20:03;0.60;;;0.60;;
46282;SDS011;32017;43.700;11.820;2023-05-07T12:22:24;0.60;;;0.60;;
46282;SDS011;32017;43.700;11.820;2023-05-07T12:24:56;1.55;;;0.68;;
46282;SDS011;32017;43.700;11.820;2023-05-07T12:27:17;0.60;;;0.60;;
46282;SDS011;32017;43.700;11.820;2023-05-07T12:29:37;0.60;;;0.60;;
46282;SDS011;32017;43.700;11.820;2023-05-07T12:32:02;1.08;;;0.60;;
46282;SDS011;32017;43.700;11.820;2023-05-07T12:34:25;0.98;;;0.60;;
46282;SDS011;32017;43.700;11.820;2023-05-07T12:36:46;1.95;;;0.70;;
46282;SDS011;32017;43.700;11.820;2023-05-07T12:39:08;0.50;;;0.50;;
46282;SDS011;32017;43.700;11.820;2023-05-07T12:41:29;0.50;;;0.50;;
46282;SDS011;32017;43.700;11.820;2023-05-07T12:43:49;0.93;;;0.40;;
46282;SDS011;32017;43.700;11.820;2023-05-07T12:46:09;1.35;;;0.50;;
46282;SDS011;32017;43.700;11.820;2023-05-07T12:48:30;0.50;;;0.50;;
46282;SDS011;32017;43.700;11.820;2023-05-07T12:50:50;1.40;;;0.50;;
46282;SDS011;32017;43.700;11.820;2023-05-07T12:53:11;0.98;;;0.50;;
46282;SDS011;32017;43.700;11.820;2023-05-07T12:55:32;0.60;;;0.50;;
46282;SDS011;32017;43.700;11.820;2023-05-07T12:57:54;1.38;;;0.50;;
46282;SDS011;32017;43.700;11.820;2023-05-07T13:00:16;0.50;;;0.50;;
46282;SDS011;32017;43.700;11.820;2023-05-07T13:02:37;1.50;;;0.50;;
46282;SDS011;32017;43.700;11.820;2023-05-07T13:04:58;1.35;;;0.50;;
46282;SDS011;32017;43.700;11.820;2023-05-07T13:07:18;0.50;;;0.50;;
46282;SDS011;32017;43.700;11.820;2023-05-07T13:09:39;0.73;;;0.50;;
46282;SDS011;32017;43.700;11.820;2023-05-07T13:11:59;0.50;;;0.50;;
46282;SDS011;32017;43.700;11.820;2023-05-07T13:14:20;0.50;;;0.50;;
46282;SDS011;32017;43.700;11.820;2023-05-07T13:16:41;2.38;;;0.50;;
46282;SDS011;32017;43.700;11.820;2023-05-07T13:19:01;0.82;;;0.50;;
46282;SDS011;32017;43.700;11.820;2023-05-07T13:21:21;0.50;;;0.50;;
46282;SDS011;32017;43.700;11.820;2023-05-07T13:23:41;0.50;;;0.50;;
46282;SDS011;32017;43.700;11.820;2023-05-07T13:26:02;2.10;;;0.50;;
46282;SDS011;32017;43.700;11.820;2023-05-07T13:28:30;0.50;;;0.50;;
46282;SDS011;32017;43.700;11.820;2023-05-07T13:30:50;0.82;;;0.80;;
46282;SDS011;32017;43.700;11.820;2023-05-07T13:33:13;2.05;;;0.50;;
46282;SDS011;32017;43.700;11.820;2023-05-07T13:35:35;0.93;;;0.50;;
46282;SDS011;32017;43.700;11.820;2023-05-07T13:37:55;0.45;;;0.45;;
46282;SDS011;32017;43.700;11.820;2023-05-07T13:40:15;0.50;;;0.50;;
46282;SDS011;32017;43.700;11.820;2023-05-07T13:42:35;0.50;;;0.50;;
46282;SDS011;32017;43.700;11.820;2023-05-07T13:44:55;0.55;;;0.50;;
46282;SDS011;32017;43.700;11.820;2023-05-07T13:47:16;0.50;;;0.50;;
46282;SDS011;32017;43.700;11.820;2023-05-07T13:49:36;0.50;;;0.50;;
46282;SDS011;32017;43.700;11.820;2023-05-07T13:51:56;0.60;;;0.60;;
46282;SDS011;32017;43.700;11.820;2023-05-07T13:54:17;0.40;;;0.40;;
46282;SDS011;32017;43.700;11.820;2023-05-07T13:56:37;0.50;;;0.50;;
46282;SDS011;32017;43.700;11.820;2023-05-07T13:58:57;0.85;;;0.50;;
46282;SDS011;32017;43.700;11.820;2023-05-07T14:01:19;0.50;;;0.50;;
46282;SDS011;32017;43.700;11.820;2023-05-07T14:03:40;0.50;;;0.50;;
46282;SDS011;32017;43.700;11.820;2023-05-07T14:06:00;0.95;;;0.85;;
46282;SDS011;32017;43.700;11.820;2023-05-07T14:08:20;0.73;;;0.50;;
46282;SDS011;32017;43.700;11.820;2023-05-07T14:10:40;0.50;;;0.50;;
46282;SDS011;32017;43.700;11.820;2023-05-07T14:13:01;0.52;;;0.52;;
46282;SDS011;32017;43.700;11.820;2023-05-07T14:15:21;0.50;;;0.50;;
46282;SDS011;32017;43.700;11.820;2023-05-07T14:17:41;0.50;;;0.50;;
46282;SDS011;32017;43.700;11.820;2023-05-07T14:20:02;1.65;;;0.50;;